Time;durP1;ratioP1;P1;durP2;ratioP2;P2;SDS_P1;SDS_P2;PMS_P1;PMS_P2;Temp;Humidity;BMP_temperature;BMP_pressure;BME280_temperature;BME280_humidity;BME280_pressure;Samples;Min_cycle;Max_cycle;Signal;HPM_P1;HPM_P2
2021/11/19 00:00:52;;;;;;;66.30;37.00;;;;;;;11.95;85.69;102071.44;4999091;23;20047;-76
2021/11/19 00:03:37;;;;;;;65.57;36.80;;;;;;;11.94;85.94;102074.44;4960305;28;20047;-77
2021/11/19 00:06:22;;;;;;;70.88;38.35;;;;;;;11.93;86.16;102065.47;4953528;28;20039;-76
2021/11/19 00:09:09;;;;;;;71.30;39.38;;;;;;;11.94;86.45;102064.34;4952241;28;20043;-77
2021/11/19 00:11:55;;;;;;;69.32;36.80;;;;;;;11.92;86.46;102058.41;4945830;29;20035;-77
2021/11/19 00:14:40;;;;;;;62.38;29.92;;;;;;;11.92;86.67;102071.22;4950268;28;20043;-77
2021/11/19 00:17:25;;;;;;;70.18;36.97;;;;;;;11.91;86.78;102056.78;4947748;28;20506;-77
2021/11/19 00:20:12;;;;;;;53.72;28.90;;;;;;;11.92;87.00;102066.56;4944818;28;20044;-77
2021/11/19 00:23:00;;;;;;;70.72;38.40;;;;;;;11.94;87.31;102063.53;4951158;28;20035;-76
2021/11/19 00:25:46;;;;;;;69.82;39.08;;;;;;;11.92;87.17;102065.75;4947682;28;20051;-77
2021/11/19 00:28:31;;;;;;;69.05;36.63;;;;;;;11.93;87.44;102068.22;4947486;28;20043;-77
2021/11/19 00:31:17;;;;;;;68.80;37.50;;;;;;;11.93;87.55;102062.75;4947089;28;20502;-77
2021/11/19 00:34:02;;;;;;;64.53;37.22;;;;;;;11.94;87.64;102064.34;4943257;29;20043;-77
2021/11/19 00:36:47;;;;;;;64.15;35.83;;;;;;;11.95;87.71;102062.44;4950964;29;20043;-77
2021/11/19 00:39:32;;;;;;;63.35;33.78;;;;;;;11.93;87.84;102062.75;4941503;29;20043;-77
2021/11/19 00:42:17;;;;;;;69.80;37.90;;;;;;;11.93;87.74;102062.75;4938679;29;20039;-77
2021/11/19 00:45:03;;;;;;;54.30;29.60;;;;;;;11.96;87.83;102069.53;4959635;28;20514;-77
2021/11/19 00:47:48;;;;;;;68.10;36.00;;;;;;;11.94;87.71;102072.53;4945404;29;20047;-77
2021/11/19 00:51:05;;;;;;;48.75;26.00;;;;;;;11.95;87.85;102076.06;4957401;28;20043;-77
2021/11/19 00:53:54;;;;;;;50.63;28.77;;;;;;;11.95;87.93;102082.34;4939512;29;20051;-76
2021/11/19 00:56:44;;;;;;;64.32;34.90;;;;;;;11.95;88.08;102074.16;4950546;29;20043;-77
2021/11/19 00:59:32;;;;;;;56.17;32.75;;;;;;;11.95;87.81;102079.63;4955237;28;20047;-77
2021/11/19 01:02:21;;;;;;;62.50;33.80;;;;;;;11.93;88.21;102073.66;4951361;28;20517;-77
2021/11/19 01:05:07;;;;;;;61.53;32.78;;;;;;;11.95;88.11;102085.06;4956954;28;20450;-77
2021/11/19 01:07:53;;;;;;;57.08;31.50;;;;;;;11.94;88.15;102083.44;4940103;29;20043;-76
2021/11/19 01:10:39;;;;;;;56.85;32.75;;;;;;;11.94;87.93;102080.72;4933756;29;20052;-77
2021/11/19 01:13:25;;;;;;;58.10;32.13;;;;;;;11.95;88.04;102076.06;4938221;28;20039;-77
2021/11/19 01:16:16;;;;;;;37.40;23.83;;;;;;;11.94;87.86;102085.34;4955922;28;20055;-77
2021/11/19 01:19:09;;;;;;;49.17;28.42;;;;;;;11.93;86.79;102084.56;4949409;28;20042;-77
2021/11/19 01:22:02;;;;;;;58.90;32.00;;;;;;;11.94;87.55;102072.53;4960118;28;20047;-77
2021/11/19 01:24:48;;;;;;;54.78;30.55;;;;;;;11.94;87.74;102067.09;4946087;28;20051;-76
2021/11/19 01:27:34;;;;;;;39.97;24.58;;;;;;;11.93;87.44;102078.28;4944102;29;20051;-77
2021/11/19 01:30:33;;;;;;;59.35;29.70;;;;;;;11.94;87.71;102074.44;4942336;29;20513;-77
2021/11/19 01:33:18;;;;;;;49.00;28.50;;;;;;;11.94;88.01;102066.25;4953421;28;20043;-77
2021/11/19 01:36:19;;;;;;;44.58;26.35;;;;;;;11.93;87.75;102073.66;4952408;28;20039;-77
2021/11/19 01:39:32;;;;;;;49.08;27.25;;;;;;;11.93;87.51;102073.66;4940251;28;20047;-77
2021/11/19 01:42:55;;;;;;;50.33;28.40;;;;;;;11.93;87.84;102068.22;4954917;28;20031;-78
2021/11/19 01:45:45;;;;;;;50.22;28.48;;;;;;;11.95;88.29;102076.88;4951039;28;20675;-77
2021/11/19 01:48:39;;;;;;;44.88;26.85;;;;;;;11.92;87.96;102069.31;4936746;29;20047;-76
2021/11/19 01:51:29;;;;;;;47.85;28.30;;;;;;;11.93;87.29;102078.28;4954083;28;20039;-77
2021/11/19 01:54:30;;;;;;;46.00;25.55;;;;;;;11.91;86.68;102073.13;4943103;29;20039;-77
2021/11/19 01:57:26;;;;;;;43.65;24.88;;;;;;;11.92;87.15;102076.66;4938024;29;20118;-77
2021/11/19 02:00:30;;;;;;;;;;;;;;;11.94;87.59;102079.91;4957138;28;20047;-77
2021/11/19 02:03:22;;;;;;;42.03;25.08;;;;;;;11.93;87.83;102073.66;4941615;29;19914;-76
2021/11/19 02:06:20;;;;;;;47.13;27.63;;;;;;;11.93;87.94;102073.66;4953560;29;20048;-77
2021/11/19 02:09:14;;;;;;;47.10;26.35;;;;;;;11.94;88.04;102079.91;4942446;29;20504;-76
2021/11/19 02:12:19;;;;;;;42.60;25.08;;;;;;;11.93;88.15;102076.38;4954961;28;20047;-76
2021/11/19 02:15:04;;;;;;;47.58;27.25;;;;;;;11.92;88.27;102082.13;4943609;29;20506;-77
2021/11/19 02:17:53;;;;;;;33.15;18.98;;;;;;;11.92;88.26;102077.47;4941903;29;20050;-77
2021/11/19 02:20:41;;;;;;;40.42;24.88;;;;;;;11.93;88.32;102089.19;4953452;28;20051;-77
2021/11/19 02:23:38;;;;;;;45.20;26.33;;;;;;;11.93;88.54;102079.09;4942925;29;20040;-77
2021/11/19 02:26:29;;;;;;;46.72;24.73;;;;;;;11.92;88.31;102077.47;4940332;29;20059;-77
2021/11/19 02:29:15;;;;;;;47.33;26.67;;;;;;;11.89;87.63;102067.13;4944616;28;20042;-77
2021/11/19 02:32:07;;;;;;;45.30;25.30;;;;;;;11.94;88.48;102069.81;4938305;29;20047;-77
2021/11/19 02:35:04;;;;;;;45.17;25.48;;;;;;;11.94;88.29;102069.81;4939272;28;20417;-77
2021/11/19 02:37:57;;;;;;;42.22;24.77;;;;;;;11.95;88.78;102076.88;4943667;29;20437;-77
2021/11/19 02:40:44;;;;;;;41.83;23.90;;;;;;;11.95;89.03;102074.16;4931204;29;20043;-77
2021/11/19 02:43:42;;;;;;;44.42;25.00;;;;;;;11.95;89.11;102070.63;4939305;29;20039;-76
2021/11/19 02:46:39;;;;;;;41.08;23.92;;;;;;;11.97;89.13;102066.50;4941997;29;20043;-77
2021/11/19 02:49:26;;;;;;;43.53;22.65;;;;;;;11.96;89.05;102069.53;4940203;28;20502;-77
2021/11/19 02:52:42;;;;;;;37.30;22.67;;;;;;;11.98;89.32;102067.34;4958625;28;20043;-77
2021/11/19 02:55:34;;;;;;;40.92;24.98;;;;;;;11.96;89.26;102070.34;4927600;28;20046;-77
2021/11/19 02:58:23;;;;;;;40.75;22.45;;;;;;;11.97;89.27;102074.69;4958716;28;20039;-77
2021/11/19 03:01:20;;;;;;;38.40;22.98;;;;;;;11.99;89.46;102071.66;4938598;29;20047;-77
2021/11/19 03:04:21;;;;;;;37.03;22.25;;;;;;;11.98;89.54;102068.16;4939905;29;20031;-77
2021/11/19 03:07:07;;;;;;;36.00;23.13;;;;;;;11.97;89.34;102074.69;4942671;29;20523;-77
2021/11/19 03:10:02;;;;;;;39.08;21.67;;;;;;;11.99;89.66;102067.00;4940668;29;20422;-77
2021/11/19 03:12:49;;;;;;;38.30;22.25;;;;;;;11.97;89.79;102063.78;4939113;29;20039;-77
2021/11/19 03:15:40;;;;;;;36.53;21.25;;;;;;;12.00;89.87;102065.91;4942283;29;20039;-77
2021/11/19 03:18:27;;;;;;;39.65;22.75;;;;;;;12.00;89.96;102063.19;4940975;29;20128;-78
2021/11/19 03:21:16;;;;;;;36.85;21.38;;;;;;;11.98;90.03;102054.50;4944002;29;20039;-77
2021/11/19 03:24:01;;;;;;;36.47;21.45;;;;;;;11.99;90.20;102050.66;4942226;29;20040;-77
2021/11/19 03:26:48;;;;;;;34.38;19.45;;;;;;;12.02;90.05;102048.47;4939938;29;20055;-76
2021/11/19 03:29:38;;;;;;;35.65;20.42;;;;;;;12.00;90.08;102048.75;4942777;29;20031;-78
2021/11/19 03:32:25;;;;;;;36.80;21.13;;;;;;;12.02;90.03;102053.91;4941621;29;20051;-77
2021/11/19 03:35:14;;;;;;;39.20;22.40;;;;;;;12.03;90.02;102047.38;4928725;29;20450;-77
2021/11/19 03:38:01;;;;;;;36.03;20.95;;;;;;;12.04;90.09;102051.72;4943165;28;20035;-77
2021/11/19 03:40:49;;;;;;;42.20;21.60;;;;;;;12.04;90.02;102051.72;4939225;29;20051;-77
2021/11/19 03:43:49;;;;;;;33.95;20.15;;;;;;;12.04;90.19;102052.50;4939492;29;20405;-77
2021/11/19 03:46:48;;;;;;;34.95;21.05;;;;;;;12.06;89.95;102055.75;4943011;29;20051;-76
2021/11/19 03:49:35;;;;;;;34.70;20.52;;;;;;;12.05;89.95;102054.13;4940241;29;20039;-77
2021/11/19 03:52:27;;;;;;;40.63;23.33;;;;;;;12.07;90.29;102054.66;4939092;29;20051;-76
2021/11/19 03:55:16;;;;;;;41.28;21.70;;;;;;;12.07;90.10;102051.13;4945017;29;20422;-77
2021/11/19 03:58:03;;;;;;;38.45;22.67;;;;;;;12.07;89.90;102059.31;4942867;29;20430;-77
2021/11/19 04:00:54;;;;;;;33.10;19.88;;;;;;;12.08;89.96;102059.03;4931453;29;20051;-76
2021/11/19 04:03:40;;;;;;;39.97;20.98;;;;;;;12.07;89.67;102053.84;4945454;29;20043;-77
2021/11/19 04:06:25;;;;;;;36.03;19.48;;;;;;;12.06;89.84;102058.50;4955840;28;20430;-77
2021/11/19 04:09:11;;;;;;;33.35;19.98;;;;;;;12.07;90.02;102067.50;4946966;28;20039;-77
2021/11/19 04:12:00;;;;;;;35.10;20.08;;;;;;;12.08;90.02;102060.94;4944692;29;20043;-77
2021/11/19 04:14:45;;;;;;;33.33;19.73;;;;;;;12.07;90.14;102062.84;4957502;28;20490;-76
2021/11/19 04:17:30;;;;;;;25.65;14.95;;;;;;;12.07;90.17;102068.31;4961198;28;20039;-77
2021/11/19 04:20:18;;;;;;;32.42;18.85;;;;;;;12.07;90.29;102073.75;4941698;29;20051;-77
2021/11/19 04:23:03;;;;;;;34.40;19.08;;;;;;;12.07;90.05;102075.66;4947845;28;20043;-76
2021/11/19 04:25:52;;;;;;;31.23;18.45;;;;;;;12.08;90.11;102078.09;4947478;28;20047;-77
2021/11/19 04:28:37;;;;;;;32.72;18.80;;;;;;;12.07;90.26;102072.94;4956158;28;20050;-77
2021/11/19 04:31:42;;;;;;;27.15;15.23;;;;;;;12.06;90.05;102079.50;4953602;29;20544;-77
2021/11/19 04:34:28;;;;;;;33.88;19.02;;;;;;;12.05;90.12;102075.13;4955680;28;20035;-77
2021/11/19 04:37:12;;;;;;;26.60;15.63;;;;;;;12.07;90.06;102071.03;4955743;29;20051;-77
2021/11/19 04:39:57;;;;;;;24.05;14.93;;;;;;;12.09;90.00;102078.94;4941717;29;20047;-77
2021/11/19 04:42:43;;;;;;;;;;;;;;;12.10;89.79;102077.78;4945924;28;20047;-77
2021/11/19 04:45:29;;;;;;;33.40;17.85;;;;;;;12.09;90.02;102070.75;4943797;29;19915;-77
2021/11/19 04:48:15;;;;;;;28.02;18.05;;;;;;;12.11;89.83;102073.97;4932777;29;20047;-77
2021/11/19 04:51:04;;;;;;;44.90;22.50;;;;;;;12.11;89.88;102084.88;4955884;28;20039;-76
2021/11/19 04:53:48;;;;;;;31.65;18.13;;;;;;;12.10;90.17;102088.69;4943776;29;20044;-77
2021/11/19 04:56:34;;;;;;;31.27;18.20;;;;;;;12.10;90.01;102075.06;4941301;29;20055;-77
2021/11/19 04:59:21;;;;;;;35.25;19.60;;;;;;;12.11;90.08;102076.69;4932479;28;20047;-77
2021/11/19 05:02:11;;;;;;;34.67;19.67;;;;;;;12.12;89.99;102073.69;4943527;29;20039;-76
2021/11/19 05:05:02;;;;;;;31.15;18.35;;;;;;;12.10;89.88;102073.16;4940753;29;20051;-78
2021/11/19 05:07:50;;;;;;;34.95;20.42;;;;;;;12.12;89.82;102064.69;4945192;29;20043;-77
2021/11/19 05:10:37;;;;;;;32.95;18.52;;;;;;;12.11;89.84;102063.88;4952511;28;20051;-77
2021/11/19 05:13:24;;;;;;;35.67;17.83;;;;;;;12.10;89.95;102062.25;4934439;29;20035;-77
2021/11/19 05:16:17;;;;;;;25.40;14.85;;;;;;;12.09;90.12;102060.63;4933727;29;20035;-78
2021/11/19 05:19:04;;;;;;;30.77;17.88;;;;;;;12.12;90.13;102059.25;4954932;28;20035;-76
2021/11/19 05:21:50;;;;;;;31.45;18.23;;;;;;;12.10;90.10;102059.53;4940877;29;20051;-78
2021/11/19 05:24:37;;;;;;;32.58;17.65;;;;;;;12.12;90.19;102064.69;4944206;29;20043;-77
2021/11/19 05:27:22;;;;;;;31.67;17.80;;;;;;;12.12;90.07;102067.41;4941991;29;20051;-77
2021/11/19 05:30:08;;;;;;;;;;;;;;;12.14;90.29;102068.75;4941175;29;20047;-77
2021/11/19 05:33:07;;;;;;;36.20;17.80;;;;;;;12.11;90.12;102071.25;4943786;29;19915;-77
2021/11/19 05:35:53;;;;;;;35.58;19.08;;;;;;;12.12;90.10;102067.41;4946152;28;20051;-77
2021/11/19 05:38:39;;;;;;;38.03;21.77;;;;;;;12.12;89.96;102067.41;4940006;29;20047;-77
2021/11/19 05:41:27;;;;;;;33.53;18.27;;;;;;;12.13;89.88;102069.06;4936585;29;20426;-76
2021/11/19 05:44:12;;;;;;;40.13;18.90;;;;;;;12.11;90.13;102071.25;4941893;29;20047;-77
2021/11/19 05:47:27;;;;;;;33.08;18.40;;;;;;;12.12;89.94;102076.41;4929821;29;20043;-77
2021/11/19 05:50:27;;;;;;;32.97;17.80;;;;;;;12.14;90.16;102087.81;4935246;29;20043;-76
2021/11/19 05:53:12;;;;;;;32.53;18.27;;;;;;;12.13;90.44;102085.41;4940168;29;20051;-77
2021/11/19 05:55:57;;;;;;;29.42;14.52;;;;;;;12.14;90.24;102095.22;4941190;29;20050;-77
2021/11/19 05:58:42;;;;;;;;;;;;;;;12.15;90.24;102088.63;4937337;29;20052;-77
2021/11/19 06:01:33;;;;;;;34.30;17.30;;;;;;;12.13;90.23;102091.69;4969910;23;19930;-64
2021/11/19 06:04:24;;;;;;;35.65;19.42;;;;;;;12.15;90.23;102091.38;4954171;28;20042;-65
2021/11/19 06:07:20;;;;;;;27.90;12.80;;;;;;;12.13;90.23;102094.41;4967376;28;20035;-64
2021/11/19 06:10:10;;;;;;;34.47;17.98;;;;;;;12.14;90.31;102092.50;4962425;28;20039;-66
2021/11/19 06:13:00;;;;;;;43.63;19.83;;;;;;;12.16;90.08;102103.91;4962740;28;20067;-65
2021/11/19 06:15:52;;;;;;;45.00;21.23;;;;;;;12.16;89.88;102106.63;4954906;28;20044;-65
2021/11/19 06:18:45;;;;;;;30.85;17.00;;;;;;;12.16;89.89;102098.44;4951277;28;20039;-66
2021/11/19 06:21:40;;;;;;;31.08;17.85;;;;;;;12.17;89.95;102100.91;4944213;28;20047;-66
2021/11/19 06:24:33;;;;;;;33.17;18.17;;;;;;;12.17;90.24;102097.34;4955864;28;20496;-66
2021/11/19 06:27:24;;;;;;;31.95;16.83;;;;;;;12.18;90.26;102102.53;4959275;28;20047;-66
2021/11/19 06:30:15;;;;;;;34.90;19.08;;;;;;;12.16;90.12;102099.25;4957903;28;20035;-65
2021/11/19 06:33:01;;;;;;;33.67;19.08;;;;;;;12.17;89.99;102105.53;4954721;28;20411;-66
2021/11/19 06:35:47;;;;;;;37.38;18.27;;;;;;;12.17;90.21;102117.25;4954654;28;20511;-65
2021/11/19 06:38:32;;;;;;;34.80;17.88;;;;;;;12.19;89.89;102125.94;4952677;28;20047;-65
2021/11/19 06:41:22;;;;;;;34.63;18.02;;;;;;;12.19;89.87;102125.16;4949780;28;20047;-65
2021/11/19 06:44:31;;;;;;;33.28;18.23;;;;;;;12.20;90.21;102129.47;4941771;28;20431;-64
2021/11/19 06:47:36;;;;;;;45.95;22.55;;;;;;;12.18;90.01;102129.78;4970306;28;20047;-64
2021/11/19 06:50:50;;;;;;;33.58;17.75;;;;;;;12.20;90.04;102127.56;4957271;28;20051;-66
2021/11/19 06:54:04;;;;;;;36.40;18.13;;;;;;;12.22;90.19;102130.00;4954898;28;20042;-65
2021/11/19 06:57:22;;;;;;;33.67;18.40;;;;;;;12.21;90.28;102129.19;4956855;28;20039;-63
2021/11/19 07:00:13;;;;;;;34.38;19.13;;;;;;;12.22;90.20;102130.00;4956608;28;20043;-63
2021/11/19 07:02:59;;;;;;;38.28;18.25;;;;;;;12.21;90.01;102139.28;4958202;28;20043;-64
2021/11/19 07:05:43;;;;;;;38.85;18.63;;;;;;;12.21;90.30;102133.84;4958375;28;20035;-64
2021/11/19 07:08:30;;;;;;;33.45;15.23;;;;;;;12.22;90.08;102146.38;4948394;28;20047;-64
2021/11/19 07:11:20;;;;;;;37.78;19.92;;;;;;;12.23;90.14;102142.56;4958244;28;20496;-64
2021/11/19 07:14:06;;;;;;;50.05;20.73;;;;;;;12.23;90.27;102143.38;4957493;28;20404;-65
2021/11/19 07:16:51;;;;;;;40.60;19.52;;;;;;;12.21;90.08;102148.28;4950978;28;20047;-64
2021/11/19 07:19:39;;;;;;;37.85;20.10;;;;;;;12.22;89.90;102143.66;4950783;29;20492;-65
2021/11/19 07:22:25;;;;;;;37.90;17.02;;;;;;;12.22;90.10;102152.66;4957141;28;20049;-65
2021/11/19 07:25:21;;;;;;;28.23;15.10;;;;;;;12.22;90.07;102149.09;4942704;28;20051;-65
2021/11/19 07:28:08;;;;;;;38.55;17.92;;;;;;;12.22;89.94;102158.09;4955450;28;20508;-64
2021/11/19 07:30:58;;;;;;;89.15;36.63;;;;;;;12.17;89.19;102160.06;4970157;28;20042;-65
2021/11/19 07:34:06;;;;;;;80.85;34.00;;;;;;;12.09;87.48;102158.00;4972536;28;20039;-65
2021/11/19 07:37:23;;;;;;;97.88;35.38;;;;;;;12.07;86.72;102160.19;4966757;28;20051;-65
2021/11/19 07:40:31;;;;;;;94.10;35.00;;;;;;;12.01;85.79;102164.88;4964695;28;20047;-65
2021/11/19 07:43:34;;;;;;;73.93;32.47;;;;;;;12.00;85.78;102164.06;4975984;28;20048;-65
2021/11/19 07:46:29;;;;;;;92.80;38.20;;;;;;;11.96;84.96;102160.31;4965005;28;20042;-66
2021/11/19 07:49:21;;;;;;;88.35;37.40;;;;;;;11.92;84.86;102156.53;4954855;28;20035;-66
2021/11/19 07:52:08;;;;;;;89.82;40.30;;;;;;;11.90;84.62;102156.00;4957981;28;20038;-66
2021/11/19 07:54:53;;;;;;;83.80;35.78;;;;;;;11.90;84.63;102172.34;4954171;28;20046;-65
2021/11/19 07:57:39;;;;;;;84.70;34.20;;;;;;;11.90;84.07;102164.19;4952383;28;20043;-65
2021/11/19 08:00:29;;;;;;;59.22;26.80;;;;;;;12.00;85.71;102171.44;4956682;28;20050;-65
2021/11/19 08:03:24;;;;;;;54.40;24.83;;;;;;;12.02;86.03;102162.97;4964215;28;20043;-65
2021/11/19 08:06:09;;;;;;;42.72;22.35;;;;;;;12.07;86.71;102162.91;4952006;28;20424;-65
2021/11/19 08:08:55;;;;;;;42.70;20.75;;;;;;;12.07;87.00;102166.47;4963515;28;20042;-65
2021/11/19 08:11:41;;;;;;;50.97;27.05;;;;;;;12.08;87.08;102167.28;4957988;28;20047;-65
2021/11/19 08:14:26;;;;;;;;;;;;;;;12.11;87.72;102166.69;4958095;28;20047;-67
2021/11/19 08:17:24;;;;;;;39.92;19.88;;;;;;;12.13;87.86;102167.22;4956032;28;19922;-65
2021/11/19 08:20:16;;;;;;;45.97;21.60;;;;;;;12.15;88.01;102173.16;4960574;28;20046;-64
2021/11/19 08:23:01;;;;;;;48.67;23.10;;;;;;;12.14;88.49;102171.56;4969918;28;20043;-64
2021/11/19 08:25:46;;;;;;;50.63;23.30;;;;;;;12.17;88.97;102170.97;4974956;28;20046;-65
2021/11/19 08:28:32;;;;;;;50.05;17.25;;;;;;;12.20;88.87;102170.38;4966126;28;20050;-65
2021/11/19 08:31:20;;;;;;;61.40;31.10;;;;;;;11.85;86.18;102171.59;4968923;28;20050;-65
2021/11/19 08:34:05;;;;;;;65.13;31.27;;;;;;;11.87;85.66;102172.94;4970434;28;20043;-65
2021/11/19 08:36:51;;;;;;;68.22;30.83;;;;;;;11.67;85.41;102170.38;4965324;28;20047;-65
2021/11/19 08:39:36;;;;;;;68.90;31.70;;;;;;;11.57;85.00;102178.66;4970653;28;20043;-64
2021/11/19 08:42:22;;;;;;;68.25;30.90;;;;;;;11.79;85.38;102170.81;4980600;28;20047;-65
2021/11/19 08:45:09;;;;;;;74.50;34.17;;;;;;;11.72;83.97;102167.59;4978389;28;20520;-65
2021/11/19 08:47:55;;;;;;;75.53;31.13;;;;;;;11.73;85.64;102172.00;4976249;28;20047;-65
2021/11/19 08:50:40;;;;;;;71.90;31.80;;;;;;;11.64;84.99;102170.94;4979930;28;20408;-65
2021/11/19 08:53:25;;;;;;;67.43;28.83;;;;;;;11.66;84.54;102171.47;4978659;28;20035;-65
2021/11/19 08:56:10;;;;;;;73.32;32.03;;;;;;;11.52;83.54;102170.50;4976511;28;20047;-65
2021/11/19 08:58:56;;;;;;;;;;;;;;;11.45;83.68;102172.75;4980965;28;20047;-66
2021/11/19 09:01:48;;;;;;;75.18;32.25;;;;;;;11.36;85.25;102172.56;4970409;28;20107;-64
2021/11/19 09:04:34;;;;;;;76.13;32.78;;;;;;;11.25;84.81;102165.56;4972741;28;20043;-66
2021/11/19 09:07:19;;;;;;;75.22;31.73;;;;;;;11.64;84.02;102179.09;4971599;28;20039;-66
2021/11/19 09:10:09;;;;;;;75.72;32.85;;;;;;;11.65;82.83;102182.66;4964455;28;20512;-66
2021/11/19 09:12:54;;;;;;;62.60;29.77;;;;;;;11.57;84.05;102181.38;4961767;28;20043;-66
2021/11/19 09:15:40;;;;;;;51.00;23.65;;;;;;;11.62;83.37;102180.50;4968187;28;20047;-66
2021/11/19 09:18:33;;;;;;;64.10;30.92;;;;;;;11.74;82.64;102178.22;4958921;28;20497;-66
2021/11/19 09:21:30;;;;;;;61.67;29.63;;;;;;;11.82;81.50;102181.16;4956599;28;20039;-66
2021/11/19 09:24:20;;;;;;;63.17;27.85;;;;;;;11.89;82.21;102180.81;4967981;28;20042;-66
2021/11/19 09:27:10;;;;;;;67.07;29.13;;;;;;;11.78;81.48;102182.84;4958152;28;20035;-66
2021/11/19 09:30:03;;;;;;;56.97;28.80;;;;;;;11.74;81.69;102184.50;4955648;28;20489;-66
2021/11/19 09:32:51;;;;;;;56.13;28.02;;;;;;;11.84;79.70;102189.84;4959181;28;20424;-66
2021/11/19 09:35:37;;;;;;;53.25;26.85;;;;;;;11.82;79.95;102192.06;4956890;28;20409;-66
2021/11/19 09:38:25;;;;;;;56.60;27.92;;;;;;;11.92;80.65;102191.97;4954093;28;20051;-66
2021/11/19 09:41:36;;;;;;;50.88;27.50;;;;;;;12.19;79.71;102182.44;4958202;28;20043;-66
2021/11/19 09:44:30;;;;;;;55.33;25.50;;;;;;;12.22;79.04;102176.38;4970095;28;20040;-66
2021/11/19 09:47:27;;;;;;;64.53;28.08;;;;;;;12.27;78.91;102177.13;4968424;28;20042;-66
2021/11/19 09:50:30;;;;;;;53.45;26.48;;;;;;;12.26;77.94;102169.22;4966170;28;20047;-66
2021/11/19 09:53:44;;;;;;;58.22;26.08;;;;;;;12.29;78.44;102163.22;4971599;28;20047;-65
2021/11/19 09:57:06;;;;;;;54.65;26.25;;;;;;;12.26;78.21;102152.88;4973599;28;20042;-65
2021/11/19 10:00:20;;;;;;;58.58;27.27;;;;;;;12.36;78.55;102141.84;4977588;28;20043;-65
2021/11/19 10:03:39;;;;;;;63.20;28.88;;;;;;;12.56;79.88;102130.66;4974392;28;20047;-65
2021/11/19 10:06:30;;;;;;;58.97;28.33;;;;;;;12.54;77.66;102127.44;4971724;28;20047;-65
2021/11/19 10:09:26;;;;;;;59.13;27.40;;;;;;;12.80;77.15;102120.47;4970824;28;20039;-67
2021/11/19 10:12:18;;;;;;;61.67;29.27;;;;;;;12.60;78.09;102126.22;4974524;28;20039;-66
2021/11/19 10:15:19;;;;;;;66.20;26.80;;;;;;;12.81;77.75;102124.84;4966127;28;20035;-66
2021/11/19 10:18:21;;;;;;;55.47;27.50;;;;;;;12.80;78.14;102119.66;4961102;28;20039;-66
2021/11/19 10:21:14;;;;;;;63.42;28.95;;;;;;;12.93;78.00;102118.13;4971004;28;20043;-66
2021/11/19 10:24:36;;;;;;;48.40;22.10;;;;;;;13.01;75.56;102109.25;4966208;28;20413;-66
2021/11/19 10:27:26;;;;;;;35.78;19.88;;;;;;;12.86;74.05;102115.75;4965405;28;20034;-64
2021/11/19 10:30:32;;;;;;;35.92;18.23;;;;;;;12.86;72.93;102105.66;4966129;28;20046;-64
2021/11/19 10:33:23;;;;;;;39.92;19.77;;;;;;;13.24;73.23;102103.72;4968517;28;20031;-65
2021/11/19 10:36:33;;;;;;;37.72;18.63;;;;;;;13.33;72.39;102109.28;4964435;28;20039;-65
2021/11/19 10:39:48;;;;;;;36.08;18.63;;;;;;;13.36;72.25;102111.41;4969884;28;20039;-65
2021/11/19 10:43:09;;;;;;;39.83;19.65;;;;;;;13.34;72.67;102108.19;4967722;28;20039;-64
2021/11/19 10:46:30;;;;;;;38.85;20.48;;;;;;;13.46;72.15;102092.13;4957124;28;20493;-65
2021/11/19 10:49:48;;;;;;;40.97;22.30;;;;;;;13.55;71.95;102089.50;4963292;28;20509;-65
2021/11/19 10:53:01;;;;;;;49.90;24.85;;;;;;;13.44;73.49;102086.16;4963747;28;20039;-63
2021/11/19 10:56:40;;;;;;;52.40;25.75;;;;;;;13.35;74.95;102092.63;4966617;28;20040;-63
2021/11/19 11:00:01;;;;;;;46.63;24.75;;;;;;;13.24;75.45;102095.53;4913761;29;20048;-62
2021/11/19 11:02:51;;;;;;;48.85;24.75;;;;;;;13.19;76.10;102089.34;4946212;28;20043;-62
2021/11/19 11:05:42;;;;;;;54.92;25.58;;;;;;;13.14;76.29;102087.50;4942368;29;20047;-62
2021/11/19 11:08:31;;;;;;;63.97;29.67;;;;;;;13.13;77.27;102091.34;4951033;28;20405;-62
2021/11/19 11:11:22;;;;;;;55.38;28.75;;;;;;;13.12;78.07;102094.34;4949809;29;20043;-62
2021/11/19 11:14:08;;;;;;;70.00;32.42;;;;;;;13.12;78.78;102086.16;4947504;29;20043;-64
2021/11/19 11:16:53;;;;;;;218.35;53.47;;;;;;;13.12;80.10;102089.72;4952109;29;20051;-64
2021/11/19 11:19:47;;;;;;;150.88;48.15;;;;;;;13.12;80.14;102086.97;4940188;29;20043;-64
2021/11/19 11:22:38;;;;;;;151.27;43.95;;;;;;;13.09;81.00;102079.34;4948063;29;20043;-62
2021/11/19 11:25:28;;;;;;;121.45;43.38;;;;;;;13.12;81.60;102067.03;4957227;28;20047;-62
2021/11/19 11:28:19;;;;;;;146.88;49.70;;;;;;;13.14;82.42;102070.28;4945811;29;20493;-62
2021/11/19 11:31:33;;;;;;;121.50;43.63;;;;;;;13.14;82.57;102071.13;4947904;29;20039;-62
2021/11/19 11:34:24;;;;;;;122.88;45.38;;;;;;;13.15;83.02;102072.75;4938384;29;20040;-62
2021/11/19 11:37:34;;;;;;;92.82;38.95;;;;;;;13.14;83.01;102071.13;4943672;28;20048;-62
2021/11/19 11:40:38;;;;;;;100.20;40.03;;;;;;;13.18;83.76;102060.38;4941854;29;20040;-63
2021/11/19 11:43:32;;;;;;;87.07;38.90;;;;;;;13.20;83.66;102053.53;4951962;29;20047;-62
2021/11/19 11:49:53;;;;;;;86.22;37.63;;;;;;;13.16;81.36;102052.47;4948851;29;20040;-62
2021/11/19 11:53:10;;;;;;;82.53;36.85;;;;;;;13.15;81.37;102053.63;4949642;29;20404;-62
2021/11/19 11:56:13;;;;;;;80.85;40.67;;;;;;;13.14;80.55;102048.44;4948670;29;20047;-62
2021/11/19 11:58:58;;;;;;;95.13;43.53;;;;;;;13.17;81.75;102048.66;4945596;29;20043;-62
2021/11/19 12:01:57;;;;;;;79.65;40.17;;;;;;;13.14;80.84;102045.72;4968435;28;20484;-62
2021/11/19 12:04:59;;;;;;;93.65;46.28;;;;;;;13.19;82.18;102046.44;4971898;28;20051;-62
2021/11/19 12:07:59;;;;;;;95.03;44.92;;;;;;;13.19;82.45;102053.81;4970186;28;20504;-62
2021/11/19 12:10:56;;;;;;;111.32;47.58;;;;;;;13.19;82.40;102053.81;4966113;28;20492;-62
2021/11/19 12:13:50;;;;;;;94.72;43.03;;;;;;;13.16;81.95;102043.47;4973237;28;20038;-63
2021/11/19 12:16:50;;;;;;;81.28;38.75;;;;;;;13.16;82.23;102043.47;4967737;28;20038;-63
2021/11/19 12:19:53;;;;;;;89.20;45.38;;;;;;;13.21;82.89;102043.38;4976398;28;20050;-63
2021/11/19 12:22:45;;;;;;;100.50;45.33;;;;;;;13.24;83.44;102037.34;4970636;28;20046;-63
2021/11/19 12:25:49;;;;;;;101.68;50.22;;;;;;;13.24;83.49;102040.88;4973990;28;20043;-63
2021/11/19 12:28:41;;;;;;;98.38;50.00;;;;;;;13.29;83.74;102031.78;4958136;28;20034;-63
2021/11/19 12:31:34;;;;;;;90.72;46.05;;;;;;;13.24;82.26;102024.50;4961684;28;20047;-62
2021/11/19 12:34:32;;;;;;;96.53;47.83;;;;;;;13.26;83.10;102024.16;4986800;23;20046;-64
2021/11/19 12:37:44;;;;;;;89.53;43.55;;;;;;;13.24;83.13;102013.56;4977135;28;20047;-65
2021/11/19 12:40:44;;;;;;;100.28;44.17;;;;;;;13.23;82.65;102014.69;4982201;28;20047;-65
2021/11/19 12:43:50;;;;;;;94.10;45.08;;;;;;;13.22;81.92;102013.06;4977785;28;20042;-65
2021/11/19 12:46:54;;;;;;;98.72;51.78;;;;;;;13.24;82.75;102018.22;4978787;28;20051;-64
2021/11/19 12:49:53;;;;;;;100.68;46.97;;;;;;;13.25;82.94;102017.13;4981265;28;20047;-64
2021/11/19 12:52:50;;;;;;;93.43;45.50;;;;;;;13.25;82.14;102008.91;4976025;28;20039;-65
2021/11/19 12:55:43;;;;;;;93.88;43.83;;;;;;;13.23;81.61;102003.75;4967802;28;20043;-64
2021/11/19 12:58:32;;;;;;;96.32;43.75;;;;;;;13.23;82.52;101995.56;4982038;28;20043;-64
2021/11/19 13:01:55;;;;;;;91.63;44.67;;;;;;;13.26;82.11;101999.59;4981996;28;20051;-65
2021/11/19 13:05:04;;;;;;;94.43;43.72;;;;;;;13.29;82.58;101996.28;4896777;29;20056;-65
2021/11/19 13:08:00;;;;;;;93.75;43.50;;;;;;;13.30;82.61;101986.97;4908491;29;20052;-64
2021/11/19 13:10:47;;;;;;;89.88;43.30;;;;;;;13.30;82.39;101986.16;4980457;28;20039;-65